Time;durP1;ratioP1;P1;durP2;ratioP2;P2;SDS_P1;SDS_P2;PMS_P1;PMS_P2;Temp;Humidity;BMP_temperature;BMP_pressure;BME280_temperature;BME280_humidity;BME280_pressure;Samples;Min_cycle;Max_cycle;Signal;HPM_P1;HPM_P2
2023/05/16 00:02:11;;;;;;;2.23;2.13;;;;;12.30;95683.00;;;;5054668;28;20196;-59
2023/05/16 00:04:38;;;;;;;1.80;1.70;;;;;12.30;95685.00;;;;5053637;28;20599;-59
2023/05/16 00:07:08;;;;;;;1.63;1.53;;;;;12.30;95676.00;;;;5053392;28;20315;-59
2023/05/16 00:09:35;;;;;;;2.37;1.63;;;;;12.30;95682.00;;;;5053596;28;20212;-59
2023/05/16 00:12:03;;;;;;;1.63;1.53;;;;;12.40;95687.00;;;;5053948;28;20242;-59
2023/05/16 00:14:30;;;;;;;1.40;1.30;;;;;12.30;95685.00;;;;5053469;28;20246;-59
2023/05/16 00:16:58;;;;;;;3.00;1.87;;;;;12.20;95689.00;;;;5053374;28;20262;-59
2023/05/16 00:19:26;;;;;;;2.10;1.90;;;;;12.10;95684.00;;;;5053347;28;20307;-59
2023/05/16 00:21:53;;;;;;;1.17;1.17;;;;;12.10;95691.00;;;;5054389;28;20192;-59
2023/05/16 00:24:22;;;;;;;1.30;1.30;;;;;12.00;95690.00;;;;5053354;28;20199;-59
2023/05/16 00:26:50;;;;;;;1.80;1.70;;;;;12.10;95685.00;;;;5053296;28;20207;-58
2023/05/16 00:29:17;;;;;;;1.10;1.10;;;;;12.10;95678.00;;;;5053846;28;20196;-59
2023/05/16 00:31:44;;;;;;;1.37;1.30;;;;;12.00;95676.00;;;;5053986;28;20199;-59
2023/05/16 00:34:12;;;;;;;1.80;1.70;;;;;12.00;95681.00;;;;5053516;28;20203;-59
2023/05/16 00:36:39;;;;;;;1.30;1.30;;;;;12.00;95678.00;;;;5053109;28;20211;-59
2023/05/16 00:39:07;;;;;;;1.90;1.80;;;;;12.00;95682.00;;;;5053148;28;20301;-59
2023/05/16 00:41:36;;;;;;;1.50;1.43;;;;;11.90;95678.00;;;;5053558;28;20242;-58
2023/05/16 00:44:03;;;;;;;1.67;1.57;;;;;11.80;95673.00;;;;5035311;28;20659;-60
2023/05/16 00:46:30;;;;;;;5.60;2.07;;;;;11.80;95674.00;;;;5055909;28;20212;-58
2023/05/16 00:48:58;;;;;;;1.70;1.60;;;;;11.90;95671.00;;;;5057296;28;20227;-58
2023/05/16 00:51:26;;;;;;;1.93;1.40;;;;;11.80;95666.00;;;;5057318;28;20678;-58
2023/05/16 00:53:54;;;;;;;3.30;2.70;;;;;11.80;95662.00;;;;5057497;28;20588;-57
2023/05/16 00:56:23;;;;;;;2.70;2.50;;;;;11.70;95671.00;;;;5057069;28;20261;-58
2023/05/16 00:58:51;;;;;;;2.93;2.77;;;;;11.60;95670.00;;;;5057351;28;20188;-58
2023/05/16 01:01:23;;;;;;;2.87;2.67;;;;;11.60;95668.00;;;;5056946;28;20216;-58
2023/05/16 01:03:50;;;;;;;3.60;3.40;;;;;11.60;95674.00;;;;5057511;28;20184;-58
2023/05/16 01:06:18;;;;;;;4.73;3.83;;;;;11.60;95678.00;;;;5056779;28;20215;-58
2023/05/16 01:08:45;;;;;;;2.80;2.60;;;;;11.60;95672.00;;;;5057192;28;20535;-58
2023/05/16 01:11:18;;;;;;;3.70;3.40;;;;;11.70;95665.00;;;;5056882;28;20205;-58
2023/05/16 01:13:55;;;;;;;3.90;3.60;;;;;11.70;95681.00;;;;5057102;28;20176;-58
2023/05/16 01:16:30;;;;;;;6.60;4.07;;;;;11.70;95675.00;;;;5056699;28;20587;-58
2023/05/16 01:19:10;;;;;;;2.93;2.73;;;;;11.60;95675.00;;;;5056996;28;20259;-58
2023/05/16 01:21:48;;;;;;;2.63;2.43;;;;;11.60;95673.00;;;;5056885;28;20656;-58
2023/05/16 01:24:23;;;;;;;3.23;3.00;;;;;11.60;95682.00;;;;5057300;28;20195;-57
2023/05/16 01:26:53;;;;;;;3.20;3.00;;;;;11.60;95684.00;;;;5056535;28;20225;-58
2023/05/16 01:29:20;;;;;;;4.03;3.73;;;;;11.60;95685.00;;;;5056445;28;20200;-59
2023/05/16 01:31:48;;;;;;;2.63;2.43;;;;;11.60;95683.00;;;;5056511;28;20663;-59
2023/05/16 01:34:15;;;;;;;3.63;2.87;;;;;11.70;95683.00;;;;5056952;28;20192;-59
2023/05/16 01:36:52;;;;;;;3.70;3.40;;;;;11.70;95677.00;;;;5056314;28;20204;-59
2023/05/16 01:39:26;;;;;;;4.03;3.73;;;;;11.80;95679.00;;;;5056661;28;20649;-59
2023/05/16 01:42:03;;;;;;;3.33;3.13;;;;;11.70;95678.00;;;;5056913;28;20187;-59
2023/05/16 01:44:35;;;;;;;3.53;3.23;;;;;11.60;95678.00;;;;5056702;28;20658;-59
2023/05/16 01:47:05;;;;;;;3.20;2.90;;;;;11.70;95681.00;;;;5056265;28;20266;-58
2023/05/16 01:49:39;;;;;;;3.63;3.33;;;;;11.70;95678.00;;;;5056210;28;20180;-59
2023/05/16 01:52:10;;;;;;;13.13;3.97;;;;;11.60;95679.00;;;;5056466;28;20180;-59
2023/05/16 01:54:41;;;;;;;3.70;3.40;;;;;11.60;95684.00;;;;5056466;28;20184;-58
2023/05/16 01:57:10;;;;;;;4.70;4.27;;;;;11.60;95688.00;;;;5056002;28;20686;-58
2023/05/16 01:59:38;;;;;;;5.17;4.53;;;;;11.60;95679.00;;;;5055904;28;20253;-57
2023/05/16 02:02:06;;;;;;;3.47;3.17;;;;;11.60;95680.00;;;;5055959;28;20188;-57
2023/05/16 02:04:33;;;;;;;5.30;3.77;;;;;11.60;95678.00;;;;5056487;28;20191;-57
2023/05/16 02:07:01;;;;;;;3.43;2.33;;;;;11.70;95682.00;;;;5059980;22;20231;-57
2023/05/16 02:09:28;;;;;;;3.13;2.93;;;;;11.60;95680.00;;;;5056075;28;20211;-54
2023/05/16 02:11:56;;;;;;;13.80;5.30;;;;;11.60;95679.00;;;;5055901;28;20659;-54
2023/05/16 02:14:24;;;;;;;4.23;2.90;;;;;11.60;95683.00;;;;5056150;28;20720;-54
2023/05/16 02:16:52;;;;;;;2.70;2.50;;;;;11.50;95681.00;;;;5055573;28;20223;-54
2023/05/16 02:19:19;;;;;;;4.00;3.67;;;;;11.50;95678.00;;;;5055594;28;20736;-56
2023/05/16 02:21:47;;;;;;;3.80;3.50;;;;;11.50;95684.00;;;;5055463;28;20760;-54
2023/05/16 02:24:14;;;;;;;2.90;2.70;;;;;11.50;95691.00;;;;5056078;28;20188;-54
2023/05/16 02:26:41;;;;;;;3.37;3.07;;;;;11.60;95681.00;;;;5055406;28;20219;-54
2023/05/16 02:29:09;;;;;;;13.03;4.57;;;;;11.60;95683.00;;;;5055665;28;20627;-54
2023/05/16 02:31:38;;;;;;;5.70;5.17;;;;;11.50;95680.00;;;;5055381;28;20196;-54
2023/05/16 02:34:06;;;;;;;4.80;4.23;;;;;11.60;95675.00;;;;5056191;28;20203;-54
2023/05/16 02:36:34;;;;;;;3.80;3.50;;;;;11.60;95677.00;;;;5055197;28;20277;-54
2023/05/16 02:39:02;;;;;;;6.57;5.93;;;;;11.50;95680.00;;;;5055431;28;20669;-54
2023/05/16 02:41:30;;;;;;;7.57;4.80;;;;;11.40;95688.00;;;;5055402;28;20262;-54
2023/05/16 02:43:58;;;;;;;4.47;4.07;;;;;11.40;95685.00;;;;5055700;28;20188;-54
2023/05/16 02:46:27;;;;;;;5.07;4.70;;;;;11.40;95683.00;;;;5055017;28;20216;-55
2023/05/16 02:48:56;;;;;;;4.87;4.40;;;;;11.50;95684.00;;;;5055057;28;20242;-54
2023/05/16 02:51:25;;;;;;;4.80;4.40;;;;;11.30;95683.00;;;;5054982;28;20195;-54
2023/05/16 02:53:55;;;;;;;5.60;4.97;;;;;11.40;95682.00;;;;5053675;28;20200;-54
2023/05/16 02:56:23;;;;;;;7.93;4.27;;;;;11.40;95679.00;;;;5054107;28;20219;-54
2023/05/16 02:58:51;;;;;;;9.60;7.13;;;;;11.30;95687.00;;;;5054860;28;20203;-54
2023/05/16 03:01:18;;;;;;;12.60;6.30;;;;;11.20;95685.00;;;;5054711;28;20261;-54
2023/05/16 03:03:45;;;;;;;8.80;6.47;;;;;11.20;95672.00;;;;5055009;28;20218;-54
2023/05/16 03:06:15;;;;;;;8.40;4.30;;;;;11.20;95683.00;;;;5054448;28;20614;-54
2023/05/16 03:08:42;;;;;;;4.87;4.53;;;;;11.30;95687.00;;;;5054148;28;20198;-54
2023/05/16 03:11:10;;;;;;;3.50;3.30;;;;;11.30;95679.00;;;;5055215;28;20246;-54
2023/05/16 03:13:37;;;;;;;5.47;4.97;;;;;11.30;95689.00;;;;5054551;28;20670;-54
2023/05/16 03:16:05;;;;;;;4.50;4.13;;;;;11.30;95693.00;;;;5054399;28;20219;-56
2023/05/16 03:18:33;;;;;;;3.93;3.60;;;;;11.30;95680.00;;;;5054484;28;20200;-54
2023/05/16 03:21:01;;;;;;;6.37;5.30;;;;;11.40;95687.00;;;;5055009;28;20300;-55
2023/05/16 03:23:30;;;;;;;8.63;5.50;;;;;11.40;95681.00;;;;5053158;28;20223;-55
2023/05/16 03:25:58;;;;;;;13.50;5.13;;;;;11.30;95690.00;;;;5054240;28;20286;-55
2023/05/16 03:28:25;;;;;;;8.17;5.43;;;;;11.30;95685.00;;;;5054295;28;20189;-55
2023/05/16 03:30:53;;;;;;;5.60;5.10;;;;;11.30;95690.00;;;;5054650;28;20242;-55
2023/05/16 03:33:20;;;;;;;4.63;4.23;;;;;11.40;95689.00;;;;5054442;28;20566;-55
2023/05/16 03:35:48;;;;;;;12.40;6.90;;;;;11.30;95681.00;;;;5054079;28;20200;-55
2023/05/16 03:38:16;;;;;;;6.37;4.73;;;;;11.20;95682.00;;;;5054386;28;20196;-55
2023/05/16 03:40:44;;;;;;;7.57;6.60;;;;;11.20;95693.00;;;;5054885;28;20212;-54
2023/05/16 03:43:12;;;;;;;6.23;5.60;;;;;11.30;95690.00;;;;5054282;28;20196;-55
2023/05/16 03:45:39;;;;;;;6.67;4.63;;;;;11.20;95686.00;;;;5054141;28;20199;-55
2023/05/16 03:48:08;;;;;;;7.00;6.37;;;;;11.20;95696.00;;;;5053907;28;20201;-55
2023/05/16 03:50:36;;;;;;;6.27;5.63;;;;;11.30;95696.00;;;;5053821;28;20192;-54
2023/05/16 03:53:04;;;;;;;9.40;5.63;;;;;11.30;95691.00;;;;5054150;28;20219;-54
2023/05/16 03:55:31;;;;;;;4.97;4.50;;;;;11.30;95693.00;;;;5052518;28;20279;-54
2023/05/16 03:58:00;;;;;;;6.33;5.73;;;;;11.20;95695.00;;;;5053813;28;20250;-54
2023/05/16 04:00:28;;;;;;;6.60;5.70;;;;;11.10;95692.00;;;;5053687;28;20242;-54
2023/05/16 04:02:55;;;;;;;8.43;5.70;;;;;11.10;95695.00;;;;5054143;28;20196;-55
2023/05/16 04:05:23;;;;;;;5.83;5.33;;;;;11.10;95691.00;;;;5053908;28;20196;-55
2023/05/16 04:07:50;;;;;;;4.53;4.13;;;;;11.20;95699.00;;;;5053421;28;20222;-55
2023/05/16 04:10:17;;;;;;;12.63;5.23;;;;;11.10;95697.00;;;;5053519;28;20246;-55
2023/05/16 04:12:45;;;;;;;5.10;4.63;;;;;11.10;95706.00;;;;5054059;28;20307;-55
2023/05/16 04:15:14;;;;;;;10.73;5.53;;;;;11.10;95704.00;;;;5053449;28;20192;-55
2023/05/16 04:17:41;;;;;;;6.67;6.17;;;;;11.00;95698.00;;;;5053353;28;20219;-55
2023/05/16 04:20:09;;;;;;;5.93;4.87;;;;;11.10;95714.00;;;;5052530;28;20283;-55
2023/05/16 04:22:37;;;;;;;5.60;5.03;;;;;10.90;95707.00;;;;5053996;28;20220;-55
2023/05/16 04:25:04;;;;;;;9.67;6.43;;;;;10.80;95702.00;;;;5053349;28;20195;-55
2023/05/16 04:27:32;;;;;;;12.03;6.77;;;;;10.80;95702.00;;;;5053242;28;20278;-55
2023/05/16 04:30:00;;;;;;;9.80;6.80;;;;;10.80;95696.00;;;;5053802;28;20196;-55
2023/05/16 04:32:28;;;;;;;5.77;5.27;;;;;10.90;95696.00;;;;5053790;28;20188;-55
2023/05/16 04:34:56;;;;;;;6.10;4.13;;;;;10.90;95692.00;;;;5053209;28;20679;-55
2023/05/16 04:37:23;;;;;;;8.07;5.53;;;;;10.90;95697.00;;;;5053163;28;20274;-55
2023/05/16 04:39:53;;;;;;;8.73;7.07;;;;;10.80;95710.00;;;;5053186;28;20210;-55
2023/05/16 04:42:21;;;;;;;6.80;5.40;;;;;10.70;95697.00;;;;5053286;28;20227;-55
2023/05/16 04:44:49;;;;;;;8.27;7.23;;;;;10.80;95705.00;;;;5053176;28;20198;-55
2023/05/16 04:47:16;;;;;;;8.13;6.20;;;;;10.80;95705.00;;;;5053047;28;20215;-55
2023/05/16 04:49:45;;;;;;;4.50;4.10;;;;;10.80;95706.00;;;;5053324;28;20254;-55
2023/05/16 04:52:12;;;;;;;6.83;4.93;;;;;10.80;95714.00;;;;5053024;28;20267;-55
2023/05/16 04:54:40;;;;;;;6.87;6.03;;;;;10.70;95710.00;;;;5053296;28;20192;-55
2023/05/16 04:57:07;;;;;;;7.03;4.63;;;;;10.80;95715.00;;;;5052964;28;20208;-55
2023/05/16 04:59:35;;;;;;;7.90;4.13;;;;;10.70;95711.00;;;;5053473;28;20192;-55
2023/05/16 05:02:03;;;;;;;7.40;5.17;;;;;10.70;95715.00;;;;5052877;28;20683;-55
2023/05/16 05:04:30;;;;;;;5.27;4.97;;;;;10.60;95719.00;;;;5054019;28;20196;-55
2023/05/16 05:06:59;;;;;;;6.73;6.03;;;;;10.60;95723.00;;;;5053073;28;20234;-55
2023/05/16 05:09:26;;;;;;;7.40;5.80;;;;;10.70;95727.00;;;;5053977;28;20277;-55
2023/05/16 05:11:54;;;;;;;7.20;6.13;;;;;10.80;95741.00;;;;5052900;28;20195;-55
2023/05/16 05:14:21;;;;;;;7.17;5.63;;;;;10.60;95730.00;;;;5052834;28;20208;-55
2023/05/16 05:16:48;;;;;;;5.90;5.07;;;;;10.60;95728.00;;;;5052817;28;20273;-55
2023/05/16 05:19:16;;;;;;;5.20;4.70;;;;;10.70;95738.00;;;;5052840;28;20215;-55
2023/05/16 05:21:44;;;;;;;7.63;7.00;;;;;10.60;95740.00;;;;5052709;28;20226;-55
2023/05/16 05:24:13;;;;;;;6.10;5.53;;;;;10.60;95746.00;;;;5052298;28;20703;-55
2023/05/16 05:26:40;;;;;;;3.83;3.53;;;;;10.60;95738.00;;;;5052643;28;20211;-55
2023/05/16 05:29:07;;;;;;;5.40;4.93;;;;;10.50;95738.00;;;;5052658;28;20196;-55
2023/05/16 05:31:35;;;;;;;6.23;5.40;;;;;10.60;95752.00;;;;5054161;28;20196;-55
2023/05/16 05:34:02;;;;;;;4.17;3.87;;;;;10.70;95743.00;;;;5056703;28;20211;-55
2023/05/16 05:36:30;;;;;;;5.60;4.23;;;;;10.70;95745.00;;;;5056312;28;20216;-55
2023/05/16 05:38:58;;;;;;;4.03;3.20;;;;;10.70;95738.00;;;;5056691;28;20738;-55
2023/05/16 05:41:27;;;;;;;4.97;4.37;;;;;10.70;95741.00;;;;5056076;28;20278;-55
2023/05/16 05:43:54;;;;;;;3.77;2.77;;;;;10.70;95750.00;;;;5056249;28;20196;-55
2023/05/16 05:46:22;;;;;;;4.50;4.20;;;;;10.80;95740.00;;;;5056112;28;20218;-54
2023/05/16 05:48:49;;;;;;;4.93;4.23;;;;;10.80;95749.00;;;;5054890;28;20682;-55
2023/05/16 05:51:17;;;;;;;4.07;3.77;;;;;10.70;95743.00;;;;5056312;28;20554;-55
2023/05/16 05:53:44;;;;;;;4.20;3.90;;;;;10.80;95745.00;;;;5056004;28;20559;-55
2023/05/16 05:56:12;;;;;;;8.60;4.00;;;;;10.80;95747.00;;;;5055967;28;20223;-55
2023/05/16 05:58:41;;;;;;;2.80;2.60;;;;;10.80;95751.00;;;;5056015;28;20246;-55
2023/05/16 06:01:08;;;;;;;3.73;3.43;;;;;10.80;95743.00;;;;5054583;28;20224;-55
2023/05/16 06:03:36;;;;;;;9.07;3.60;;;;;10.80;95750.00;;;;5055912;28;20670;-55
2023/05/16 06:06:04;;;;;;;4.37;3.93;;;;;10.70;95752.00;;;;5055631;28;20285;-55
2023/05/16 06:08:32;;;;;;;3.80;3.50;;;;;10.70;95740.00;;;;5055865;28;20542;-55
2023/05/16 06:11:00;;;;;;;3.93;2.30;;;;;10.60;95746.00;;;;5055624;28;20192;-55
2023/05/16 06:13:28;;;;;;;4.60;3.70;;;;;10.40;95741.00;;;;5051871;28;20200;-54
2023/05/16 06:15:57;;;;;;;3.20;2.97;;;;;10.50;95747.00;;;;5050534;28;20227;-55
2023/05/16 06:18:24;;;;;;;4.43;4.00;;;;;10.60;95753.00;;;;5054044;28;20279;-54
2023/05/16 06:20:53;;;;;;;3.73;3.00;;;;;10.50;95756.00;;;;5053539;28;20200;-56
2023/05/16 06:23:21;;;;;;;3.07;2.87;;;;;10.50;95759.00;;;;5053789;28;20245;-57
2023/05/16 06:25:48;;;;;;;3.73;3.47;;;;;10.50;95768.00;;;;5053997;28;20192;-57
2023/05/16 06:28:16;;;;;;;3.57;3.27;;;;;10.50;95768.00;;;;5053038;28;20200;-56
2023/05/16 06:30:43;;;;;;;3.80;3.43;;;;;10.50;95763.00;;;;5051183;28;20204;-55
2023/05/16 06:33:12;;;;;;;3.40;3.10;;;;;10.50;95773.00;;;;5053000;28;20191;-55
2023/05/16 06:35:40;;;;;;;3.53;3.23;;;;;10.50;95775.00;;;;5053704;28;20200;-56
2023/05/16 06:38:07;;;;;;;3.60;3.30;;;;;10.60;95779.00;;;;5053222;28;20208;-58
2023/05/16 06:40:36;;;;;;;2.80;2.63;;;;;10.40;95777.00;;;;5053861;28;20199;-55
2023/05/16 06:43:04;;;;;;;4.13;3.33;;;;;10.30;95780.00;;;;5050478;28;20216;-55
2023/05/16 06:45:31;;;;;;;3.03;2.83;;;;;10.40;95774.00;;;;5053449;28;20199;-55
2023/05/16 06:47:59;;;;;;;1.90;1.80;;;;;10.40;95779.00;;;;5052731;28;20200;-55
2023/05/16 06:50:28;;;;;;;2.17;2.07;;;;;10.40;95778.00;;;;5053284;28;20204;-54
2023/05/16 06:52:55;;;;;;;1.47;1.40;;;;;10.40;95775.00;;;;5050685;28;20188;-55
2023/05/16 06:55:23;;;;;;;1.67;1.57;;;;;10.30;95767.00;;;;5051572;28;20246;-54
2023/05/16 06:57:50;;;;;;;2.03;1.93;;;;;10.30;95778.00;;;;5052835;28;20215;-56
2023/05/16 07:00:19;;;;;;;2.37;2.13;;;;;10.50;95773.00;;;;5053436;28;20192;-58
2023/05/16 07:02:46;;;;;;;3.80;2.70;;;;;10.50;95775.00;;;;5050844;28;20219;-55
2023/05/16 07:05:14;;;;;;;1.60;1.27;;;;;10.60;95778.00;;;;5052350;28;20192;-55
2023/05/16 07:07:42;;;;;;;0.73;0.73;;;;;10.60;95778.00;;;;5051830;28;20678;-55
2023/05/16 07:10:11;;;;;;;1.97;1.87;;;;;10.60;95766.00;;;;5052854;28;20200;-56
2023/05/16 07:12:41;;;;;;;1.53;1.47;;;;;10.60;95784.00;;;;5052267;28;20196;-54
2023/05/16 07:15:09;;;;;;;2.03;1.67;;;;;10.60;95776.00;;;;5052011;28;20685;-54
2023/05/16 07:17:36;;;;;;;1.47;1.37;;;;;10.60;95778.00;;;;5052226;28;20231;-54
2023/05/16 07:20:04;;;;;;;1.87;1.77;;;;;10.60;95789.00;;;;5050920;28;20203;-54
2023/05/16 07:22:32;;;;;;;1.10;1.10;;;;;10.60;95782.00;;;;5052696;28;20227;-56
2023/05/16 07:25:01;;;;;;;1.50;1.40;;;;;10.60;95789.00;;;;5052570;28;20208;-54
2023/05/16 07:27:29;;;;;;;1.27;1.17;;;;;10.60;95787.00;;;;5051729;28;20223;-54
2023/05/16 07:29:57;;;;;;;1.33;1.23;;;;;10.50;95786.00;;;;5052538;28;20203;-54
2023/05/16 07:32:24;;;;;;;0.90;0.90;;;;;10.60;95790.00;;;;5051078;28;20662;-54
2023/05/16 07:34:51;;;;;;;1.67;1.37;;;;;10.70;95796.00;;;;5052347;28;20223;-54
2023/05/16 07:37:19;;;;;;;1.03;1.03;;;;;10.70;95793.00;;;;5051620;28;20216;-54
2023/05/16 07:39:46;;;;;;;2.20;2.10;;;;;10.60;95805.00;;;;5052344;28;20359;-54
2023/05/16 07:42:15;;;;;;;12.93;2.10;;;;;10.70;95792.00;;;;5052233;28;20220;-55
2023/05/16 07:44:42;;;;;;;1.87;1.77;;;;;10.60;95806.00;;;;5052036;28;20250;-55
2023/05/16 07:47:10;;;;;;;1.20;1.20;;;;;10.60;95809.00;;;;5051737;28;20226;-55
2023/05/16 07:49:37;;;;;;;1.43;1.40;;;;;10.60;95806.00;;;;5050809;28;20248;-55
2023/05/16 07:52:05;;;;;;;4.27;2.33;;;;;10.60;95803.00;;;;5052283;28;20203;-55
2023/05/16 07:54:34;;;;;;;4.37;2.47;;;;;10.60;95799.00;;;;5051666;28;20219;-55
2023/05/16 07:57:02;;;;;;;3.30;1.90;;;;;10.50;95805.00;;;;5050268;28;20220;-55
2023/05/16 07:59:31;;;;;;;1.03;1.03;;;;;10.50;95808.00;;;;5051779;28;20675;-55
2023/05/16 08:01:58;;;;;;;1.33;1.33;;;;;10.60;95809.00;;;;5052476;28;20223;-55
2023/05/16 08:04:26;;;;;;;1.47;1.43;;;;;10.50;95817.00;;;;5051271;28;20204;-55
2023/05/16 08:06:53;;;;;;;2.70;2.50;;;;;10.40;95823.00;;;;5051469;28;20224;-55
2023/05/16 08:09:20;;;;;;;3.30;3.10;;;;;10.30;95821.00;;;;5051195;28;20196;-55
2023/05/16 08:11:48;;;;;;;1.77;1.67;;;;;10.50;95826.00;;;;5051513;28;20283;-55
2023/05/16 08:14:15;;;;;;;2.00;1.90;;;;;10.50;95825.00;;;;5052035;28;20200;-54
2023/05/16 08:16:44;;;;;;;1.37;1.37;;;;;10.50;95823.00;;;;5051724;28;20238;-55
2023/05/16 08:19:11;;;;;;;2.20;2.10;;;;;10.60;95824.00;;;;5050979;28;20212;-54
2023/05/16 08:21:39;;;;;;;1.93;1.83;;;;;10.60;95827.00;;;;5051723;28;20203;-54
2023/05/16 08:24:09;;;;;;;1.90;1.80;;;;;10.50;95825.00;;;;5051632;28;20219;-55
2023/05/16 08:26:37;;;;;;;1.63;1.53;;;;;10.50;95831.00;;;;5051833;28;20220;-54
2023/05/16 08:29:04;;;;;;;6.70;4.40;;;;;10.50;95826.00;;;;5050959;28;20670;-55
2023/05/16 08:31:32;;;;;;;6.33;5.07;;;;;10.60;95825.00;;;;5051603;28;20203;-55
2023/05/16 08:34:01;;;;;;;4.73;4.07;;;;;10.50;95823.00;;;;5051292;28;20628;-55
2023/05/16 08:36:29;;;;;;;3.77;3.40;;;;;10.60;95825.00;;;;5051720;28;20307;-54
2023/05/16 08:38:56;;;;;;;2.87;2.70;;;;;10.50;95820.00;;;;5046612;28;20246;-55
2023/05/16 08:41:24;;;;;;;3.30;1.87;;;;;10.60;95826.00;;;;5051857;28;20687;-55
2023/05/16 08:43:52;;;;;;;5.10;4.13;;;;;10.60;95830.00;;;;5050969;28;20298;-55
2023/05/16 08:46:23;;;;;;;2.03;1.93;;;;;10.70;95830.00;;;;5051670;28;20219;-55
2023/05/16 08:48:53;;;;;;;2.27;2.17;;;;;10.60;95829.00;;;;5051138;28;20184;-55
2023/05/16 08:51:25;;;;;;;2.20;2.07;;;;;10.60;95833.00;;;;5051704;28;20200;-55
2023/05/16 08:54:02;;;;;;;2.53;2.37;;;;;10.50;95823.00;;;;5050798;28;20222;-55
2023/05/16 08:56:29;;;;;;;2.23;2.13;;;;;10.50;95836.00;;;;5051248;28;20627;-55
2023/05/16 08:58:58;;;;;;;5.70;3.27;;;;;10.60;95839.00;;;;5049767;28;20973;-55
2023/05/16 09:01:25;;;;;;;2.40;2.30;;;;;10.60;95833.00;;;;5051292;28;20204;-54
2023/05/16 09:03:55;;;;;;;4.47;3.57;;;;;10.40;95834.00;;;;5050762;28;20228;-55
2023/05/16 09:06:25;;;;;;;3.00;2.73;;;;;10.50;95838.00;;;;5051917;28;20238;-54
2023/05/16 09:08:52;;;;;;;2.93;2.77;;;;;10.50;95833.00;;;;5055163;28;20667;-54
2023/05/16 09:11:20;;;;;;;2.13;2.03;;;;;10.50;95838.00;;;;5053870;28;20681;-55
2023/05/16 09:13:48;;;;;;;3.30;3.00;;;;;10.50;95841.00;;;;5054462;28;20196;-55
2023/05/16 09:16:17;;;;;;;2.20;2.10;;;;;10.50;95841.00;;;;5053464;28;20722;-55
2023/05/16 09:18:45;;;;;;;2.37;2.23;;;;;10.60;95837.00;;;;5053470;28;20200;-55
2023/05/16 09:21:14;;;;;;;2.80;2.57;;;;;10.50;95843.00;;;;5054873;28;20294;-55
2023/05/16 09:23:48;;;;;;;3.30;3.00;;;;;10.50;95839.00;;;;5054496;28;20278;-55
2023/05/16 09:26:16;;;;;;;2.97;2.77;;;;;10.50;95842.00;;;;5050183;28;20216;-55
2023/05/16 09:28:44;;;;;;;3.67;3.37;;;;;10.50;95838.00;;;;5054581;28;20203;-54
2023/05/16 09:31:21;;;;;;;2.30;2.10;;;;;10.60;95838.00;;;;5054665;28;20361;-55
2023/05/16 09:33:49;;;;;;;3.10;2.57;;;;;10.60;95841.00;;;;5054812;28;20546;-55
2023/05/16 09:36:17;;;;;;;3.20;3.00;;;;;10.60;95842.00;;;;5051477;28;20243;-55
2023/05/16 09:38:46;;;;;;;4.00;2.70;;;;;10.60;95847.00;;;;5054738;28;20246;-55
2023/05/16 09:41:13;;;;;;;1.77;1.67;;;;;10.70;95846.00;;;;5054707;28;20199;-55
2023/05/16 09:43:42;;;;;;;1.83;1.73;;;;;10.80;95849.00;;;;5054676;28;20219;-55
2023/05/16 09:46:13;;;;;;;2.40;2.30;;;;;10.80;95844.00;;;;5052964;28;20278;-55
2023/05/16 09:48:44;;;;;;;2.70;2.50;;;;;10.90;95844.00;;;;5054285;28;20188;-55
2023/05/16 09:51:12;;;;;;;2.20;2.10;;;;;11.00;95834.00;;;;5054135;28;20199;-55
2023/05/16 09:53:41;;;;;;;1.43;1.33;;;;;10.90;95838.00;;;;5053367;28;20200;-55
2023/05/16 09:56:11;;;;;;;3.30;2.60;;;;;11.00;95839.00;;;;5053089;28;20231;-54
2023/05/16 09:58:40;;;;;;;2.87;2.63;;;;;11.00;95829.00;;;;5054089;28;20192;-55
2023/05/16 10:01:09;;;;;;;2.67;2.07;;;;;11.10;95838.00;;;;5052082;28;20203;-55
2023/05/16 10:03:38;;;;;;;2.57;2.20;;;;;10.80;95838.00;;;;5054220;28;20212;-55
2023/05/16 10:06:06;;;;;;;4.17;2.60;;;;;10.90;95839.00;;;;5054029;28;20232;-54
2023/05/16 10:08:35;;;;;;;1.67;1.57;;;;;10.90;95844.00;;;;5053962;28;20194;-55
2023/05/16 10:11:04;;;;;;;2.40;2.30;;;;;10.80;95843.00;;;;5049018;28;20279;-55
2023/05/16 10:13:34;;;;;;;2.03;1.93;;;;;10.90;95843.00;;;;5052535;28;20192;-54
2023/05/16 10:16:06;;;;;;;0.80;0.80;;;;;10.90;95841.00;;;;5054150;28;20269;-54
2023/05/16 10:18:35;;;;;;;1.37;1.30;;;;;11.00;95837.00;;;;5052386;28;20271;-54
2023/05/16 10:21:06;;;;;;;1.90;1.37;;;;;11.00;95836.00;;;;5053540;28;20584;-54
2023/05/16 10:23:34;;;;;;;2.27;2.07;;;;;11.00;95841.00;;;;5052079;28;20702;-54
2023/05/16 10:26:04;;;;;;;1.70;1.60;;;;;11.00;95840.00;;;;5053664;28;20239;-54
2023/05/16 10:28:35;;;;;;;2.27;2.17;;;;;10.90;95836.00;;;;5053587;28;20250;-54
2023/05/16 10:31:04;;;;;;;1.97;1.87;;;;;10.80;95843.00;;;;5053364;28;20188;-54
2023/05/16 10:33:31;;;;;;;1.40;1.40;;;;;10.80;95840.00;;;;5053374;28;20208;-54
2023/05/16 10:35:59;;;;;;;2.83;2.60;;;;;10.70;95846.00;;;;5053329;28;20230;-54
2023/05/16 10:38:28;;;;;;;1.63;1.53;;;;;10.60;95850.00;;;;5053239;28;20301;-54
2023/05/16 10:40:56;;;;;;;1.50;1.43;;;;;10.50;95850.00;;;;5052941;28;20208;-53
2023/05/16 10:43:25;;;;;;;1.67;1.40;;;;;10.40;95849.00;;;;5051790;28;20242;-53
2023/05/16 10:45:59;;;;;;;1.63;1.53;;;;;10.40;95855.00;;;;5053589;28;20215;-53
2023/05/16 10:48:31;;;;;;;2.03;1.67;;;;;10.50;95847.00;;;;5051653;28;20207;-54
2023/05/16 10:50:59;;;;;;;1.60;1.50;;;;;10.50;95843.00;;;;5053041;28;20204;-55
2023/05/16 10:53:32;;;;;;;1.03;1.03;;;;;10.70;95852.00;;;;5052078;28;20720;-55
2023/05/16 10:56:08;;;;;;;0.80;0.80;;;;;10.80;95854.00;;;;5049126;28;20270;-55
2023/05/16 10:58:43;;;;;;;1.13;1.03;;;;;10.80;95857.00;;;;5052798;28;20192;-54
2023/05/16 11:01:23;;;;;;;1.10;1.10;;;;;10.90;95857.00;;;;5052645;28;20202;-54
2023/05/16 11:04:07;;;;;;;1.63;1.53;;;;;11.20;95853.00;;;;5052868;28;20208;-55
2023/05/16 11:06:43;;;;;;;0.70;0.70;;;;;11.30;95853.00;;;;5053043;28;20231;-55
2023/05/16 11:09:21;;;;;;;1.17;1.17;;;;;11.40;95852.00;;;;5052532;28;20191;-54
2023/05/16 11:11:54;;;;;;;1.03;1.00;;;;;11.50;95862.00;;;;5052471;28;20647;-55
2023/05/16 11:14:22;;;;;;;1.47;1.43;;;;;11.50;95858.00;;;;5049708;28;20229;-55
2023/05/16 11:16:53;;;;;;;1.10;1.10;;;;;11.50;95866.00;;;;5052263;28;20220;-54
2023/05/16 11:19:32;;;;;;;0.80;0.80;;;;;11.40;95870.00;;;;5052556;28;20658;-55
2023/05/16 11:22:14;;;;;;;0.97;0.97;;;;;11.30;95865.00;;;;5052468;28;20207;-55
2023/05/16 11:24:53;;;;;;;0.90;0.90;;;;;11.20;95870.00;;;;5052434;28;20712;-55
2023/05/16 11:27:26;;;;;;;0.80;0.80;;;;;11.00;95874.00;;;;5049076;28;20285;-55
2023/05/16 11:29:56;;;;;;;1.77;1.27;;;;;10.90;95875.00;;;;5051900;28;20200;-54
2023/05/16 11:32:25;;;;;;;1.67;1.57;;;;;10.80;95871.00;;;;5051000;28;20689;-54
2023/05/16 11:34:53;;;;;;;1.17;1.17;;;;;10.70;95881.00;;;;5052095;28;20674;-55
2023/05/16 11:37:21;;;;;;;0.90;0.90;;;;;10.70;95881.00;;;;5052508;28;20219;-55
2023/05/16 11:39:49;;;;;;;1.73;1.63;;;;;10.60;95879.00;;;;5052084;28;20211;-55
2023/05/16 11:42:17;;;;;;;1.10;1.00;;;;;10.70;95876.00;;;;5052271;28;21022;-54
2023/05/16 11:44:45;;;;;;;0.73;0.73;;;;;10.80;95885.00;;;;5051835;28;20306;-54
2023/05/16 11:47:12;;;;;;;1.07;1.07;;;;;10.80;95883.00;;;;5052178;28;20223;-54
2023/05/16 11:49:42;;;;;;;0.70;0.70;;;;;10.80;95887.00;;;;5051918;28;20204;-54
2023/05/16 11:52:10;;;;;;;1.43;1.43;;;;;10.90;95892.00;;;;5051663;28;20670;-54
2023/05/16 11:54:38;;;;;;;1.00;1.00;;;;;11.00;95895.00;;;;5051858;28;20197;-53
2023/05/16 11:57:06;;;;;;;0.80;0.80;;;;;11.10;95880.00;;;;5051638;28;20227;-54
2023/05/16 11:59:33;;;;;;;1.60;1.50;;;;;11.20;95891.00;;;;5052050;28;20199;-55
2023/05/16 12:02:05;;;;;;;0.90;0.90;;;;;11.30;95890.00;;;;5051651;28;20196;-54
2023/05/16 12:04:33;;;;;;;1.23;0.90;;;;;11.10;95906.00;;;;5052203;28;20609;-54
2023/05/16 12:07:04;;;;;;;0.80;0.80;;;;;11.00;95894.00;;;;5049612;28;20227;-54
2023/05/16 12:09:33;;;;;;;1.43;1.33;;;;;10.70;95923.00;;;;5052384;28;20250;-56
2023/05/16 12:12:04;;;;;;;0.67;0.67;;;;;10.30;95913.00;;;;5051702;28;20205;-54
2023/05/16 12:14:32;;;;;;;0.80;0.80;;;;;10.20;95915.00;;;;5051666;28;20189;-54
2023/05/16 12:16:59;;;;;;;0.70;0.70;;;;;10.30;95920.00;;;;5045173;28;20215;-54
2023/05/16 12:19:27;;;;;;;0.80;0.80;;;;;10.10;95916.00;;;;5052124;28;20279;-54
2023/05/16 12:21:55;;;;;;;0.70;0.70;;;;;10.00;95918.00;;;;5050865;28;20200;-54
2023/05/16 12:24:31;;;;;;;1.00;1.00;;;;;10.10;95913.00;;;;5051747;28;20548;-54
2023/05/16 12:26:58;;;;;;;1.27;1.27;;;;;10.10;95916.00;;;;5050661;28;20763;-54